Time;durP1;ratioP1;P1;durP2;ratioP2;P2;SDS_P1;SDS_P2;PMS_P1;PMS_P2;Temp;Humidity;BMP_temperature;BMP_pressure;BME280_temperature;BME280_humidity;BME280_pressure;Samples;Min_cycle;Max_cycle;Signal;HPM_P1;HPM_P2
2022/04/14 00:01:42;;;;;;;13.10;6.67;;;15.70;99.90;;;;;;5030026;28;20738;-72
2022/04/14 00:04:07;;;;;;;13.67;6.37;;;15.60;99.90;;;;;;5030306;28;20200;-72
2022/04/14 00:06:33;;;;;;;16.47;6.87;;;15.60;99.90;;;;;;5027153;28;20271;-71
2022/04/14 00:08:58;;;;;;;18.00;6.00;;;15.50;99.90;;;;;;5017146;28;20203;-71
2022/04/14 00:11:24;;;;;;;11.80;6.03;;;15.40;99.90;;;;;;5032587;28;20178;-72
2022/04/14 00:13:49;;;;;;;11.93;6.50;;;15.40;99.90;;;;;;5048350;28;20291;-72
2022/04/14 00:16:15;;;;;;;15.13;6.97;;;15.40;99.90;;;;;;5037221;28;20186;-72
2022/04/14 00:18:40;;;;;;;13.07;6.80;;;15.40;99.90;;;;;;5029734;28;20174;-72
2022/04/14 00:21:06;;;;;;;12.40;6.70;;;15.40;99.90;;;;;;5035993;28;20192;-72
2022/04/14 00:23:31;;;;;;;10.30;6.80;;;15.40;99.90;;;;;;5029282;28;20181;-72
2022/04/14 00:25:57;;;;;;;11.70;6.93;;;15.40;99.90;;;;;;5011584;28;20288;-72
2022/04/14 00:28:23;;;;;;;12.33;7.57;;;15.40;99.90;;;;;;5029292;28;20184;-71
2022/04/14 00:30:48;;;;;;;16.00;7.00;;;15.50;99.90;;;;;;5011318;28;20520;-72
2022/04/14 00:33:14;;;;;;;16.53;7.20;;;15.50;99.90;;;;;;5029465;28;20270;-72
2022/04/14 00:35:39;;;;;;;16.27;7.10;;;15.50;99.90;;;;;;5029616;28;20190;-72
2022/04/14 00:38:05;;;;;;;13.27;7.10;;;15.50;99.90;;;;;;5028911;28;20249;-72
2022/04/14 00:40:31;;;;;;;14.47;6.70;;;15.50;99.90;;;;;;5029516;28;20174;-72
2022/04/14 00:42:56;;;;;;;9.80;6.40;;;15.50;99.90;;;;;;5028839;28;20270;-72
2022/04/14 00:45:22;;;;;;;19.90;7.80;;;15.50;99.90;;;;;;5011064;28;20503;-72
2022/04/14 00:47:49;;;;;;;14.00;7.73;;;15.50;99.90;;;;;;5023600;28;20224;-73
2022/04/14 00:50:15;;;;;;;12.70;7.93;;;15.50;99.90;;;;;;5029111;28;20165;-72
2022/04/14 00:52:46;;;;;;;10.13;7.77;;;15.40;99.90;;;;;;5019659;28;20947;-72
2022/04/14 00:55:12;;;;;;;11.87;7.27;;;15.40;99.90;;;;;;5027643;28;20425;-72
2022/04/14 00:57:38;;;;;;;12.13;8.30;;;15.40;99.90;;;;;;5028583;28;20433;-72
2022/04/14 01:00:05;;;;;;;14.13;8.60;;;15.40;99.90;;;;;;5028822;28;20489;-73
2022/04/14 01:02:30;;;;;;;10.07;7.70;;;15.40;99.90;;;;;;5023018;28;20197;-72
2022/04/14 01:04:56;;;;;;;11.60;8.17;;;15.30;99.90;;;;;;5016110;28;20484;-71
2022/04/14 01:07:22;;;;;;;18.03;9.13;;;15.30;99.90;;;;;;5027968;28;20613;-72
2022/04/14 01:09:48;;;;;;;15.17;9.17;;;15.40;99.90;;;;;;5028009;28;20436;-72
2022/04/14 01:12:14;;;;;;;17.10;8.87;;;15.30;99.90;;;;;;5028398;28;20185;-71
2022/04/14 01:14:39;;;;;;;13.40;8.63;;;15.20;99.90;;;;;;5028221;28;20205;-71
2022/04/14 01:17:07;;;;;;;15.70;8.50;;;15.20;99.90;;;;;;5029878;28;20444;-71
2022/04/14 01:19:34;;;;;;;12.30;8.07;;;15.10;99.90;;;;;;5036930;28;20181;-71
2022/04/14 01:22:15;;;;;;;19.30;8.30;;;15.10;99.90;;;;;;5027762;28;20420;-72
2022/04/14 01:24:42;;;;;;;14.60;7.70;;;15.00;99.90;;;;;;5019153;28;20420;-72
2022/04/14 01:27:08;;;;;;;17.00;8.90;;;15.00;99.90;;;;;;5028298;28;20770;-71
2022/04/14 01:29:34;;;;;;;15.63;8.90;;;14.90;99.90;;;;;;5028328;28;20529;-71
2022/04/14 01:32:01;;;;;;;13.80;8.60;;;14.90;99.90;;;;;;5028407;28;20488;-72
2022/04/14 01:34:29;;;;;;;17.53;10.17;;;14.90;99.90;;;;;;5028458;28;20202;-72
2022/04/14 01:37:00;;;;;;;15.47;10.03;;;14.80;99.90;;;;;;5010429;28;20425;-71
2022/04/14 01:39:26;;;;;;;14.97;10.00;;;14.80;99.90;;;;;;5028147;28;20421;-72
2022/04/14 01:41:51;;;;;;;19.17;11.00;;;14.80;99.90;;;;;;5028038;28;20883;-71
2022/04/14 01:44:17;;;;;;;15.03;10.60;;;14.70;99.90;;;;;;5027017;28;20421;-71
2022/04/14 01:46:43;;;;;;;14.70;10.17;;;14.70;99.90;;;;;;5029523;28;20750;-71
2022/04/14 01:49:09;;;;;;;19.37;11.57;;;14.70;99.90;;;;;;5035983;28;20180;-72
2022/04/14 01:51:35;;;;;;;20.57;11.30;;;14.70;99.90;;;;;;5027561;28;20424;-72
2022/04/14 01:54:01;;;;;;;16.73;12.07;;;14.60;99.90;;;;;;5027959;28;20255;-71
2022/04/14 01:56:27;;;;;;;19.93;12.60;;;14.60;99.90;;;;;;5028014;28;20432;-71
2022/04/14 01:58:52;;;;;;;21.57;12.70;;;14.60;99.90;;;;;;5027935;28;20831;-71
2022/04/14 02:01:18;;;;;;;19.23;13.17;;;14.50;99.90;;;;;;5027884;28;20216;-72
2022/04/14 02:03:44;;;;;;;17.43;12.37;;;14.50;99.90;;;;;;5027869;28;20178;-72
2022/04/14 02:06:10;;;;;;;19.10;13.43;;;14.40;99.90;;;;;;5027883;28;20432;-72
2022/04/14 02:08:36;;;;;;;19.47;13.10;;;14.40;99.90;;;;;;5028170;28;20178;-72
2022/04/14 02:11:03;;;;;;;21.10;13.27;;;14.40;99.90;;;;;;5024939;28;20173;-71
2022/04/14 02:13:32;;;;;;;25.07;14.23;;;14.40;99.90;;;;;;5027467;28;20540;-72
2022/04/14 02:15:58;;;;;;;28.00;14.87;;;14.40;99.90;;;;;;5027753;28;20520;-72
2022/04/14 02:18:24;;;;;;;31.43;14.63;;;14.40;99.90;;;;;;5035779;28;20506;-72
2022/04/14 02:20:50;;;;;;;22.90;14.13;;;14.40;99.90;;;;;;5010694;28;20446;-72
2022/04/14 02:23:15;;;;;;;25.30;15.23;;;14.40;99.90;;;;;;5026874;28;20609;-72
2022/04/14 02:25:41;;;;;;;25.40;15.13;;;14.30;99.90;;;;;;5027843;28;20277;-72
2022/04/14 02:28:06;;;;;;;22.07;14.90;;;14.30;99.90;;;;;;5027419;28;20178;-72
2022/04/14 02:30:35;;;;;;;20.87;15.53;;;14.30;99.90;;;;;;5027826;28;20198;-71
2022/04/14 02:33:01;;;;;;;19.70;15.17;;;14.30;99.90;;;;;;5027188;28;20182;-72
2022/04/14 02:35:27;;;;;;;20.50;14.50;;;14.30;99.90;;;;;;5027900;28;20950;-72
2022/04/14 02:37:53;;;;;;;28.63;15.53;;;14.30;99.90;;;;;;5027243;28;20450;-72
2022/04/14 02:40:19;;;;;;;20.50;15.53;;;14.30;99.90;;;;;;5027860;28;20170;-72
2022/04/14 02:42:46;;;;;;;24.87;16.43;;;14.30;99.90;;;;;;5026748;28;20794;-71
2022/04/14 02:45:12;;;;;;;23.50;15.63;;;14.30;99.90;;;;;;5024953;28;20545;-72
2022/04/14 02:47:38;;;;;;;23.73;16.33;;;14.30;99.90;;;;;;5028884;28;20459;-72
2022/04/14 02:50:04;;;;;;;24.37;16.03;;;14.30;99.90;;;;;;5035084;28;20176;-72
2022/04/14 02:52:29;;;;;;;26.30;16.93;;;14.20;99.90;;;;;;5026862;28;20178;-72
2022/04/14 02:54:55;;;;;;;27.17;17.70;;;14.20;99.90;;;;;;5027657;28;20471;-72
2022/04/14 02:57:21;;;;;;;24.80;16.57;;;14.10;99.90;;;;;;5027223;28;20193;-72
2022/04/14 02:59:46;;;;;;;26.70;16.20;;;14.10;99.90;;;;;;5027419;28;20301;-71
2022/04/14 03:02:11;;;;;;;24.10;17.30;;;14.10;99.90;;;;;;5027632;28;20252;-72
2022/04/14 03:04:37;;;;;;;26.60;16.90;;;14.00;99.90;;;;;;5027278;28;20381;-72
2022/04/14 03:07:03;;;;;;;26.27;17.13;;;14.00;99.90;;;;;;5027337;28;20210;-71
2022/04/14 03:09:29;;;;;;;25.77;16.90;;;13.50;99.90;;;;;;5027833;28;20166;-72
2022/04/14 03:11:54;;;;;;;25.70;17.43;;;13.90;99.90;;;;;;5026572;28;20811;-71
2022/04/14 03:14:20;;;;;;;26.67;16.60;;;13.90;99.90;;;;;;5026685;28;20255;-72
2022/04/14 03:16:46;;;;;;;25.40;17.43;;;13.80;99.90;;;;;;5023827;28;20465;-72
2022/04/14 03:19:11;;;;;;;30.50;16.50;;;13.80;99.90;;;;;;5032012;28;20657;-71
2022/04/14 03:21:37;;;;;;;23.00;17.03;;;13.70;99.90;;;;;;5046982;28;20231;-71
2022/04/14 03:24:02;;;;;;;25.73;18.70;;;13.70;99.90;;;;;;5028608;28;20185;-72
2022/04/14 03:26:28;;;;;;;27.00;17.50;;;13.70;99.90;;;;;;5027048;28;20194;-72
2022/04/14 03:28:53;;;;;;;28.20;17.27;;;13.70;99.90;;;;;;5027362;28;20277;-72
2022/04/14 03:31:19;;;;;;;25.10;17.17;;;13.70;99.90;;;;;;5026768;28;20621;-72
2022/04/14 03:33:44;;;;;;;24.27;17.90;;;13.70;99.90;;;;;;5029674;28;20304;-72
2022/04/14 03:36:10;;;;;;;26.60;17.20;;;13.60;99.90;;;;;;5012896;28;20750;-72
2022/04/14 03:38:35;;;;;;;25.80;17.70;;;13.60;99.90;;;;;;5030904;28;20190;-71
2022/04/14 03:41:04;;;;;;;28.73;17.80;;;13.50;99.90;;;;;;5030244;28;20257;-72
2022/04/14 03:43:31;;;;;;;25.03;18.20;;;13.50;99.90;;;;;;5030740;28;20213;-72
2022/04/14 03:45:56;;;;;;;27.33;17.97;;;13.60;99.90;;;;;;5030685;28;20436;-72
2022/04/14 03:48:22;;;;;;;26.93;17.80;;;13.50;99.90;;;;;;5029575;28;20424;-72
2022/04/14 03:50:47;;;;;;;31.83;19.13;;;13.50;99.90;;;;;;5030476;28;20182;-72
2022/04/14 03:53:13;;;;;;;28.00;18.43;;;13.40;99.90;;;;;;5030509;28;20460;-72
2022/04/14 03:55:38;;;;;;;22.73;18.07;;;13.40;99.90;;;;;;5030209;28;20273;-71
2022/04/14 03:58:04;;;;;;;28.10;18.40;;;13.30;99.90;;;;;;5030876;28;20575;-71
2022/04/14 04:00:29;;;;;;;26.60;17.90;;;13.30;99.90;;;;;;5030275;28;20173;-72
2022/04/14 04:02:55;;;;;;;25.10;18.40;;;13.30;99.90;;;;;;5030336;28;20178;-71
2022/04/14 04:05:20;;;;;;;29.43;17.60;;;13.70;99.90;;;;;;5030200;28;20501;-72
2022/04/14 04:07:46;;;;;;;27.73;19.77;;;13.30;99.90;;;;;;5030170;28;20205;-72
2022/04/14 04:10:12;;;;;;;26.20;20.17;;;13.30;99.90;;;;;;5030322;28;20529;-71
2022/04/14 04:12:38;;;;;;;33.83;19.07;;;13.30;99.90;;;;;;5029610;28;20170;-72
2022/04/14 04:15:04;;;;;;;30.40;19.50;;;13.30;99.90;;;;;;5029670;28;20448;-71
2022/04/14 04:17:29;;;;;;;29.30;20.70;;;13.30;99.90;;;;;;5031006;28;20193;-71
2022/04/14 04:19:55;;;;;;;33.63;20.03;;;13.40;99.90;;;;;;5038433;28;20170;-71
2022/04/14 04:22:20;;;;;;;29.63;19.93;;;13.40;99.90;;;;;;5025563;28;20616;-72
2022/04/14 04:24:46;;;;;;;31.73;19.77;;;13.40;99.90;;;;;;5029908;28;20593;-72
2022/04/14 04:27:11;;;;;;;30.87;20.07;;;13.50;99.90;;;;;;5029517;28;20277;-71
2022/04/14 04:29:37;;;;;;;31.67;20.43;;;13.50;99.90;;;;;;5029478;28;20191;-72
2022/04/14 04:32:02;;;;;;;26.97;19.50;;;13.50;99.90;;;;;;5030052;28;20193;-71
2022/04/14 04:34:28;;;;;;;29.53;19.47;;;13.40;99.90;;;;;;5029661;28;20209;-70
2022/04/14 04:36:54;;;;;;;27.23;19.00;;;13.30;99.90;;;;;;5029288;28;20205;-71
2022/04/14 04:39:19;;;;;;;29.40;19.90;;;13.30;99.90;;;;;;5029648;28;20624;-71
2022/04/14 04:41:45;;;;;;;32.40;19.73;;;13.20;99.90;;;;;;5028900;28;20512;-71
2022/04/14 04:44:10;;;;;;;27.90;20.00;;;13.20;99.90;;;;;;5027853;28;20610;-72
2022/04/14 04:46:36;;;;;;;29.90;19.60;;;13.20;99.90;;;;;;5029952;28;20297;-72
2022/04/14 04:49:02;;;;;;;28.33;20.20;;;13.20;99.90;;;;;;5041661;28;20256;-71
2022/04/14 04:51:28;;;;;;;33.53;20.10;;;13.30;99.90;;;;;;5049066;28;20272;-71
2022/04/14 04:53:54;;;;;;;29.93;20.23;;;13.30;99.90;;;;;;5031887;28;20198;-71
2022/04/14 04:56:19;;;;;;;29.87;21.20;;;13.30;99.90;;;;;;5028763;28;20459;-71
2022/04/14 04:58:45;;;;;;;35.73;20.43;;;13.30;99.90;;;;;;5011211;28;20625;-72
2022/04/14 05:01:12;;;;;;;29.80;20.47;;;13.30;99.90;;;;;;5028639;28;20208;-71
2022/04/14 05:03:37;;;;;;;28.87;20.90;;;13.30;99.90;;;;;;5030481;28;20415;-71
2022/04/14 05:06:03;;;;;;;30.13;20.23;;;13.30;99.90;;;;;;5029403;28;20804;-70
2022/04/14 05:08:28;;;;;;;31.60;20.63;;;13.40;99.90;;;;;;5030231;28;20178;-71
2022/04/14 05:10:54;;;;;;;34.23;19.77;;;13.40;99.90;;;;;;5025652;28;20535;-71
2022/04/14 05:13:19;;;;;;;32.83;21.23;;;13.50;99.90;;;;;;5028773;28;20208;-72
2022/04/14 05:15:45;;;;;;;30.50;19.40;;;13.60;99.90;;;;;;5011087;28;20697;-72
2022/04/14 05:18:11;;;;;;;29.60;20.60;;;14.70;99.90;;;;;;5035399;28;20174;-71
2022/04/14 05:20:36;;;;;;;26.60;19.13;;;13.60;99.90;;;;;;5032132;28;20184;-71
2022/04/14 05:23:03;;;;;;;28.03;19.37;;;13.70;99.90;;;;;;5028233;28;20231;-71
2022/04/14 05:25:29;;;;;;;26.50;18.97;;;13.80;99.90;;;;;;5028555;28;20357;-71
2022/04/14 05:27:55;;;;;;;30.40;19.73;;;13.90;99.90;;;;;;5017139;28;20482;-71
2022/04/14 05:30:20;;;;;;;27.37;19.40;;;14.00;99.90;;;;;;5008920;28;20481;-71
2022/04/14 05:32:46;;;;;;;27.30;19.43;;;14.20;99.90;;;;;;5008934;28;20504;-71
2022/04/14 05:35:12;;;;;;;34.47;20.23;;;14.20;99.90;;;;;;5016306;28;20323;-71
2022/04/14 05:37:37;;;;;;;27.60;20.07;;;14.30;99.90;;;;;;5028366;28;20254;-71
2022/04/14 05:40:04;;;;;;;24.97;18.63;;;14.40;99.90;;;;;;5028326;28;20224;-71
2022/04/14 05:42:30;;;;;;;27.53;18.83;;;14.40;99.90;;;;;;5028128;28;20272;-71
2022/04/14 05:44:55;;;;;;;30.67;18.60;;;14.50;99.90;;;;;;5025467;28;20838;-70
2022/04/14 05:47:23;;;;;;;24.50;18.20;;;14.60;99.90;;;;;;5029779;28;20544;-71
2022/04/14 05:49:50;;;;;;;28.23;17.50;;;14.70;99.90;;;;;;5036461;28;20170;-71
2022/04/14 05:52:16;;;;;;;24.63;18.43;;;14.80;99.90;;;;;;5026880;28;20428;-71
2022/04/14 05:54:41;;;;;;;25.90;17.00;;;14.90;99.90;;;;;;5028222;28;20529;-72
2022/04/14 05:57:07;;;;;;;25.00;16.33;;;15.00;99.90;;;;;;5027396;28;20194;-71
2022/04/14 05:59:32;;;;;;;27.07;16.70;;;15.10;99.90;;;;;;5027860;28;20170;-71
2022/04/14 06:01:58;;;;;;;28.40;18.40;;;15.20;99.90;;;;;;5009685;28;20165;-71
2022/04/14 06:04:23;;;;;;;23.47;17.67;;;15.30;99.90;;;;;;5028216;28;20284;-71
2022/04/14 06:06:49;;;;;;;25.43;17.03;;;15.40;99.90;;;;;;5026430;28;20193;-71
2022/04/14 06:09:14;;;;;;;26.93;17.70;;;15.50;99.90;;;;;;5009530;28;20680;-71
2022/04/14 06:11:40;;;;;;;24.87;17.00;;;15.60;99.90;;;;;;5026867;28;20197;-71
2022/04/14 06:14:05;;;;;;;25.60;17.20;;;15.90;99.90;;;;;;5027433;28;20197;-71
2022/04/14 06:16:31;;;;;;;28.33;17.90;;;15.90;99.90;;;;;;5028206;28;20504;-71
2022/04/14 06:18:57;;;;;;;23.83;17.97;;;16.00;99.90;;;;;;5035136;28;20251;-71
2022/04/14 06:21:22;;;;;;;26.30;17.63;;;16.20;99.90;;;;;;5033028;28;20227;-71
2022/04/14 06:23:49;;;;;;;28.27;18.53;;;16.20;99.90;;;;;;5026379;28;20208;-71
2022/04/14 06:26:15;;;;;;;24.30;18.80;;;16.20;99.90;;;;;;5027048;28;20339;-72
2022/04/14 06:28:42;;;;;;;27.10;18.63;;;16.10;99.90;;;;;;5009318;28;20977;-71
2022/04/14 06:31:08;;;;;;;29.30;19.30;;;16.00;99.90;;;;;;5027224;28;20664;-71
2022/04/14 06:33:33;;;;;;;28.83;18.63;;;15.90;99.90;;;;;;5034896;28;20464;-71
2022/04/14 06:35:59;;;;;;;28.73;18.90;;;15.90;99.90;;;;;;5026757;28;20932;-71
2022/04/14 06:38:27;;;;;;;31.30;20.03;;;15.80;99.90;;;;;;5027691;28;20178;-71
2022/04/14 06:40:53;;;;;;;30.87;18.83;;;15.90;99.90;;;;;;5026057;28;20260;-71
2022/04/14 06:43:18;;;;;;;28.57;18.93;;;15.90;99.90;;;;;;5026373;28;20503;-71
2022/04/14 06:45:44;;;;;;;25.90;18.60;;;16.00;99.90;;;;;;5025230;28;20194;-71
2022/04/14 06:48:10;;;;;;;24.13;18.33;;;16.10;99.90;;;;;;5025709;28;20223;-71
2022/04/14 06:50:35;;;;;;;26.57;18.07;;;16.30;99.90;;;;;;5023213;28;20482;-71
2022/04/14 06:53:01;;;;;;;27.60;20.10;;;16.50;99.90;;;;;;5008907;28;20516;-70
2022/04/14 06:55:27;;;;;;;31.17;19.30;;;16.80;99.90;;;;;;5025436;28;20181;-70
2022/04/14 06:57:53;;;;;;;23.67;16.43;;;16.90;99.90;;;;;;5027452;28;20425;-71
2022/04/14 07:00:21;;;;;;;25.00;18.10;;;17.00;99.90;;;;;;5026770;28;20613;-72
2022/04/14 07:02:51;;;;;;;21.10;16.50;;;17.20;99.90;;;;;;5025602;28;20498;-70
2022/04/14 07:05:18;;;;;;;25.20;18.50;;;17.20;99.90;;;;;;5023219;28;20440;-71
2022/04/14 07:07:44;;;;;;;22.10;16.33;;;17.20;99.90;;;;;;5024612;28;20432;-71
2022/04/14 07:10:13;;;;;;;22.43;18.70;;;17.50;99.90;;;;;;5036244;28;20417;-71
2022/04/14 07:12:40;;;;;;;23.57;15.83;;;18.00;99.90;;;;;;5032213;28;20465;-73
2022/04/14 07:15:07;;;;;;;26.10;18.40;;;18.40;99.90;;;;;;5032664;28;20977;-71
2022/04/14 07:17:34;;;;;;;26.80;18.60;;;18.60;99.90;;;;;;5014059;28;20528;-72
2022/04/14 07:20:00;;;;;;;31.90;20.47;;;19.10;99.90;;;;;;5014682;28;20420;-71
2022/04/14 07:22:26;;;;;;;25.90;18.87;;;19.20;99.90;;;;;;5031759;28;20427;-71
2022/04/14 07:24:51;;;;;;;28.33;19.03;;;19.30;99.90;;;;;;5027245;28;20655;-72
2022/04/14 07:27:21;;;;;;;29.30;20.20;;;19.40;99.90;;;;;;5028133;28;20255;-72
2022/04/14 07:29:47;;;;;;;25.60;19.00;;;19.60;99.90;;;;;;5012859;28;20178;-72
2022/04/14 07:32:13;;;;;;;30.80;20.27;;;19.80;99.90;;;;;;5021857;28;20419;-72
2022/04/14 07:34:39;;;;;;;27.93;18.37;;;20.10;99.90;;;;;;5017657;28;20486;-72
2022/04/14 07:37:05;;;;;;;24.73;18.70;;;20.70;99.90;;;;;;5039546;28;20957;-70
2022/04/14 07:39:31;;;;;;;25.00;19.33;;;21.40;99.90;;;;;;5039611;28;20256;-71
2022/04/14 07:41:56;;;;;;;27.03;19.27;;;22.20;99.90;;;;;;5013748;28;20574;-71
2022/04/14 07:44:22;;;;;;;22.30;17.07;;;22.60;99.90;;;;;;5017463;28;20196;-71
2022/04/14 07:46:47;;;;;;;23.53;19.00;;;22.70;99.90;;;;;;5028387;28;20212;-72
2022/04/14 07:49:13;;;;;;;23.93;19.03;;;22.50;99.90;;;;;;5030706;28;20193;-72
2022/04/14 07:51:40;;;;;;;26.03;16.90;;;22.00;99.90;;;;;;5029481;28;20192;-71
2022/04/14 07:54:06;;;;;;;26.17;17.63;;;21.90;99.90;;;;;;5031077;28;20284;-72
2022/04/14 07:56:33;;;;;;;23.13;17.70;;;21.90;99.90;;;;;;5031120;28;20835;-72
2022/04/14 07:58:59;;;;;;;24.60;17.77;;;22.20;99.90;;;;;;5041028;28;20234;-73
2022/04/14 08:01:25;;;;;;;27.33;18.10;;;23.00;99.90;;;;;;5028594;28;20420;-73
2022/04/14 08:03:50;;;;;;;23.80;18.53;;;23.70;96.60;;;;;;5033132;28;20438;-74
2022/04/14 08:06:16;;;;;;;19.07;14.63;;;24.10;93.50;;;;;;5031389;28;20201;-74
2022/04/14 08:08:42;;;;;;;25.30;16.87;;;24.50;92.10;;;;;;5033815;28;20208;-71
2022/04/14 08:11:09;;;;;;;23.03;18.33;;;25.20;86.40;;;;;;5027810;28;20191;-71
2022/04/14 08:13:38;;;;;;;22.67;17.97;;;25.30;87.40;;;;;;5026979;28;20219;-71
2022/04/14 08:16:08;;;;;;;23.90;18.97;;;24.60;88.30;;;;;;5026174;28;20288;-71
2022/04/14 08:18:39;;;;;;;25.97;18.97;;;24.20;89.50;;;;;;5032454;28;20212;-70
2022/04/14 08:21:05;;;;;;;25.33;19.57;;;24.00;90.20;;;;;;5024587;28;20507;-70
2022/04/14 08:23:32;;;;;;;25.50;18.93;;;24.10;90.20;;;;;;5012089;28;20733;-70
2022/04/14 08:25:58;;;;;;;26.03;19.10;;;24.10;90.20;;;;;;5032508;28;20438;-71
2022/04/14 08:28:24;;;;;;;28.47;17.80;;;24.40;87.50;;;;;;5029807;28;20408;-71
2022/04/14 08:30:50;;;;;;;24.80;19.03;;;25.10;86.40;;;;;;5012063;28;20181;-71
2022/04/14 08:33:18;;;;;;;24.10;18.37;;;26.10;76.60;;;;;;5029347;28;20205;-72
2022/04/14 08:35:44;;;;;;;27.77;19.60;;;26.60;69.20;;;;;;5033782;28;20343;-71
2022/04/14 08:38:10;;;;;;;24.50;18.73;;;26.00;70.20;;;;;;5041072;28;20177;-71
2022/04/14 08:40:41;;;;;;;21.67;18.30;;;25.80;73.50;;;;;;5039451;28;20177;-72
2022/04/14 08:43:08;;;;;;;23.70;19.20;;;26.30;69.30;;;;;;5029270;28;20209;-71
2022/04/14 08:45:45;;;;;;;23.30;19.70;;;26.10;69.30;;;;;;5029548;28;20201;-72
2022/04/14 08:48:12;;;;;;;21.97;18.80;;;26.20;64.30;;;;;;5009088;28;20208;-71
2022/04/14 08:50:38;;;;;;;22.30;17.47;;;25.40;69.90;;;;;;5035447;28;20311;-72
2022/04/14 08:53:04;;;;;;;25.00;18.73;;;25.00;74.20;;;;;;5029002;28;20599;-72
2022/04/14 08:55:30;;;;;;;23.90;18.77;;;24.70;77.70;;;;;;5034592;28;20729;-71
2022/04/14 08:57:56;;;;;;;24.60;18.43;;;24.20;75.50;;;;;;5023559;28;20180;-73
2022/04/14 09:00:22;;;;;;;27.00;20.70;;;24.20;79.40;;;;;;5030898;28;20186;-72
2022/04/14 09:02:50;;;;;;;27.87;21.17;;;23.80;81.50;;;;;;5035887;28;20416;-72
2022/04/14 09:05:17;;;;;;;28.50;21.33;;;22.70;89.60;;;;;;5018480;28;20184;-71
2022/04/14 09:07:50;;;;;;;27.87;20.40;;;22.70;91.30;;;;;;5016584;28;20502;-72
2022/04/14 09:10:16;;;;;;;35.43;21.83;;;22.30;93.40;;;;;;5032911;28;20496;-72
2022/04/14 09:12:42;;;;;;;25.70;20.10;;;22.30;94.20;;;;;;5029639;28;20408;-72
2022/04/14 09:15:08;;;;;;;26.50;20.67;;;22.30;94.30;;;;;;5039370;28;20479;-72
2022/04/14 09:17:33;;;;;;;25.70;20.20;;;22.50;93.60;;;;;;5023274;28;20220;-73
2022/04/14 09:19:59;;;;;;;24.57;20.03;;;22.60;93.80;;;;;;5030946;28;20798;-73
2022/04/14 09:22:24;;;;;;;24.00;19.30;;;22.80;93.00;;;;;;5026681;28;20184;-73
2022/04/14 09:24:55;;;;;;;26.87;20.10;;;23.10;92.00;;;;;;5026606;28;20227;-73
2022/04/14 09:27:28;;;;;;;26.20;19.90;;;23.80;88.30;;;;;;5027921;28;20201;-73
2022/04/14 09:29:56;;;;;;;25.20;19.43;;;24.50;84.70;;;;;;5016379;28;20432;-73
2022/04/14 09:32:30;;;;;;;28.47;20.93;;;24.90;77.70;;;;;;5028542;28;20529;-73
2022/04/14 09:34:57;;;;;;;26.73;20.70;;;26.90;77.10;;;;;;5026956;28;20451;-73
2022/04/14 09:37:23;;;;;;;25.97;21.50;;;25.10;74.80;;;;;;5027246;28;20440;-73
2022/04/14 09:39:56;;;;;;;24.40;20.90;;;25.00;76.10;;;;;;5028105;28;20891;-73
2022/04/14 09:42:30;;;;;;;24.03;20.20;;;25.60;73.40;;;;;;5028155;28;20408;-73
2022/04/14 09:45:15;;;;;;;27.37;21.23;;;26.90;62.20;;;;;;5022302;28;20898;-74
2022/04/14 09:47:40;;;;;;;24.27;20.20;;;27.20;52.00;;;;;;5026514;28;20189;-74
2022/04/14 09:50:22;;;;;;;25.67;19.77;;;27.00;56.20;;;;;;5028862;28;20596;-74
2022/04/14 09:53:06;;;;;;;26.63;20.40;;;26.50;58.60;;;;;;5027788;28;20691;-74
2022/04/14 09:55:33;;;;;;;30.37;20.83;;;25.80;63.80;;;;;;5027387;28;20201;-74
2022/04/14 09:58:10;;;;;;;25.90;18.63;;;25.40;66.20;;;;;;5028016;28;20196;-73
2022/04/14 10:00:44;;;;;;;25.27;19.67;;;25.20;68.30;;;;;;5027160;28;20416;-74
2022/04/14 10:03:27;;;;;;;23.67;19.30;;;25.00;69.40;;;;;;5020794;28;20502;-74
2022/04/14 10:05:55;;;;;;;24.80;19.43;;;24.70;72.70;;;;;;5026402;28;20895;-73
2022/04/14 10:08:22;;;;;;;23.90;19.53;;;24.70;71.30;;;;;;5028015;28;20483;-73
2022/04/14 10:10:49;;;;;;;27.83;20.20;;;24.70;74.70;;;;;;5027368;28;20424;-73
2022/04/14 10:13:17;;;;;;;27.87;19.77;;;25.80;66.70;;;;;;5028519;28;20728;-73
2022/04/14 10:15:53;;;;;;;25.30;20.03;;;27.80;52.40;;;;;;5026427;28;21035;-72
2022/04/14 10:18:19;;;;;;;24.03;19.00;;;28.60;53.00;;;;;;5028241;28;20189;-72
2022/04/14 10:20:46;;;;;;;24.45;18.35;;;29.00;55.90;;;;;;5026231;28;20183;-72
2022/04/14 10:23:13;;;;;;;29.05;19.77;;;30.20;54.00;;;;;;5026959;28;20185;-73
2022/04/14 10:25:40;;;;;;;21.33;17.73;;;30.90;41.20;;;;;;5027164;28;20285;-73
2022/04/14 10:28:08;;;;;;;22.70;18.42;;;31.10;40.80;;;;;;5028017;28;20662;-73
2022/04/14 10:30:34;;;;;;;19.85;17.67;;;31.90;36.20;;;;;;5027361;28;20181;-73
2022/04/14 10:33:00;;;;;;;19.17;17.17;;;32.30;33.50;;;;;;5027324;28;20173;-73
2022/04/14 10:35:27;;;;;;;21.30;18.60;;;32.50;30.40;;;;;;5025584;28;20278;-73
2022/04/14 10:38:01;;;;;;;21.95;18.85;;;33.00;27.40;;;;;;5027264;28;20592;-73
2022/04/14 10:40:29;;;;;;;22.95;18.27;;;33.30;25.00;;;;;;5028712;28;20169;-74
2022/04/14 10:42:55;;;;;;;21.88;18.88;;;33.60;21.70;;;;;;5007856;28;20251;-73
2022/04/14 10:45:23;;;;;;;21.92;17.77;;;33.20;23.20;;;;;;5026249;28;20199;-73
2022/04/14 10:47:52;;;;;;;22.70;18.85;;;32.80;23.70;;;;;;5027404;28;20686;-73
2022/04/14 10:50:31;;;;;;;26.48;18.25;;;32.50;24.90;;;;;;5027976;28;20235;-74
2022/04/14 10:53:13;;;;;;;20.90;18.67;;;32.60;25.90;;;;;;5025860;28;20181;-73
2022/04/14 10:55:47;;;;;;;21.83;18.17;;;33.70;23.20;;;;;;5025715;28;20205;-73
2022/04/14 10:58:51;;;;;;;19.23;17.30;;;33.90;19.80;;;;;;5027938;28;20212;-72
2022/04/14 11:01:45;;;;;;;20.10;17.73;;;33.80;18.60;;;;;;5005203;28;20203;-72
2022/04/14 11:04:41;;;;;;;21.73;18.15;;;33.40;18.90;;;;;;5024699;28;20278;-72
2022/04/14 11:07:13;;;;;;;20.90;18.70;;;33.30;17.90;;;;;;5020737;28;20212;-72
2022/04/14 11:09:38;;;;;;;23.75;19.88;;;33.10;19.70;;;;;;5025199;28;20330;-72
2022/04/14 11:12:05;;;;;;;21.13;17.67;;;32.90;18.60;;;;;;5026011;28;20243;-73
2022/04/14 11:14:50;;;;;;;24.00;18.92;;;32.00;23.20;;;;;;5024554;28;20220;-71
2022/04/14 11:17:31;;;;;;;25.40;19.35;;;32.20;22.60;;;;;;5025577;28;20509;-73
2022/04/14 11:20:37;;;;;;;19.85;17.75;;;33.00;21.40;;;;;;5027085;28;20256;-72
2022/04/14 11:23:04;;;;;;;22.80;17.92;;;33.50;17.60;;;;;;5008778;28;20221;-72
2022/04/14 11:25:41;;;;;;;24.98;18.30;;;34.50;12.20;;;;;;5021999;28;20693;-72
2022/04/14 11:28:27;;;;;;;21.73;16.50;;;34.80;12.40;;;;;;5025786;28;20185;-72
2022/04/14 11:30:53;;;;;;;19.58;16.63;;;34.90;11.70;;;;;;5034280;28;20177;-71
2022/04/14 11:33:34;;;;;;;22.63;17.25;;;35.40;11.30;;;;;;5026531;28;20484;-72
2022/04/14 11:36:25;;;;;;;20.35;17.80;;;36.30;6.40;;;;;;5023882;28;20548;-73
2022/04/14 11:39:01;;;;;;;21.02;16.65;;;36.50;5.00;;;;;;5027910;28;20577;-72
2022/04/14 11:42:02;;;;;;;19.27;16.42;;;36.10;3.20;;;;;;5004447;28;20169;-73
2022/04/14 11:44:31;;;;;;;19.27;17.33;;;36.10;2.90;;;;;;5004395;28;20254;-72
2022/04/14 11:47:01;;;;;;;18.73;15.75;;;36.10;1.00;;;;;;5009351;28;20655;-72
2022/04/14 11:49:34;;;;;;;17.65;15.75;;;35.80;3.40;;;;;;5025982;28;20181;-72
2022/04/14 11:52:02;;;;;;;19.63;15.70;;;36.20;1.00;;;;;;5025955;28;20174;-71
2022/04/14 11:54:30;;;;;;;19.98;15.18;;;37.00;1.00;;;;;;5029756;28;20196;-72
2022/04/14 11:56:58;;;;;;;17.60;15.68;;;36.90;2.40;;;;;;5012490;28;20659;-72
2022/04/14 11:59:41;;;;;;;20.08;15.90;;;36.60;1.00;;;;;;5013098;28;20196;-72
2022/04/14 12:02:13;;;;;;;19.67;14.45;;;35.90;1.00;;;;;;5031039;28;20231;-72
2022/04/14 12:04:44;;;;;;;17.63;15.23;;;35.70;1.00;;;;;;5031044;28;20181;-73
2022/04/14 12:07:10;;;;;;;17.05;14.63;;;36.30;1.00;;;;;;5029248;28;20681;-72
2022/04/14 12:09:37;;;;;;;18.05;13.95;;;37.00;1.00;;;;;;5030770;28;20205;-72
2022/04/14 12:12:12;;;;;;;15.15;13.55;;;37.10;1.00;;;;;;5012658;28;20181;-72
2022/04/14 12:14:45;;;;;;;17.92;14.10;;;37.30;1.00;;;;;;5012041;28;20201;-71
2022/04/14 12:17:12;;;;;;;17.35;14.15;;;36.90;1.00;;;;;;5011429;28;20216;-72
2022/04/14 12:19:50;;;;;;;15.32;12.70;;;36.10;1.00;;;;;;5030560;28;20169;-74
2022/04/14 12:22:15;;;;;;;18.27;13.90;;;36.10;1.00;;;;;;5029022;28;20213;-73
2022/04/14 12:24:48;;;;;;;14.27;12.43;;;35.80;1.00;;;;;;5030192;28;20213;-73
2022/04/14 12:27:22;;;;;;;15.57;12.43;;;34.60;1.00;;;;;;5029985;28;20598;-72
2022/04/14 12:29:52;;;;;;;22.95;12.35;;;34.30;1.00;;;;;;5012174;28;20183;-72
2022/04/14 12:32:18;;;;;;;16.88;12.82;;;34.40;1.00;;;;;;5030534;28;20185;-71